sensor_id;sensor_type;location;lat;lon;timestamp;pressure;altitude;pressure_sealevel;temperature
70831;BMP180;58451;51.550;7.208;2023-04-15T00:00:27;100074.80;;;6.40
70831;BMP180;58451;51.550;7.208;2023-04-15T00:01:59;100075.40;;;6.40
70831;BMP180;58451;51.550;7.208;2023-04-15T00:03:31;100068.20;;;6.40
70831;BMP180;58451;51.550;7.208;2023-04-15T00:05:05;100069.80;;;6.30
70831;BMP180;58451;51.550;7.208;2023-04-15T00:06:37;100072.20;;;6.30
70831;BMP180;58451;51.550;7.208;2023-04-15T00:08:10;100069.80;;;6.30
70831;BMP180;58451;51.550;7.208;2023-04-15T00:09:43;100077.40;;;6.30
70831;BMP180;58451;51.550;7.208;2023-04-15T00:11:16;100075.00;;;6.22
70831;BMP180;58451;51.550;7.208;2023-04-15T00:12:48;100076.20;;;6.20
70831;BMP180;58451;51.550;7.208;2023-04-15T00:14:20;100073.80;;;6.20
70831;BMP180;58451;51.550;7.208;2023-04-15T00:15:52;100079.20;;;6.20
70831;BMP180;58451;51.550;7.208;2023-04-15T00:17:24;100073.20;;;6.20
70831;BMP180;58451;51.550;7.208;2023-04-15T00:18:56;100076.40;;;6.20
70831;BMP180;58451;51.550;7.208;2023-04-15T00:20:28;100078.40;;;6.20
70831;BMP180;58451;51.550;7.208;2023-04-15T00:22:00;100083.60;;;6.12
70831;BMP180;58451;51.550;7.208;2023-04-15T00:23:32;100078.00;;;6.10
70831;BMP180;58451;51.550;7.208;2023-04-15T00:25:04;100073.40;;;6.10
70831;BMP180;58451;51.550;7.208;2023-04-15T00:26:36;100074.80;;;6.06
70831;BMP180;58451;51.550;7.208;2023-04-15T00:28:08;100074.80;;;6.00
70831;BMP180;58451;51.550;7.208;2023-04-15T00:29:39;100079.00;;;6.00
70831;BMP180;58451;51.550;7.208;2023-04-15T00:31:11;100079.80;;;6.00
70831;BMP180;58451;51.550;7.208;2023-04-15T00:32:44;100077.80;;;5.92
70831;BMP180;58451;51.550;7.208;2023-04-15T00:34:16;100075.60;;;5.90
70831;BMP180;58451;51.550;7.208;2023-04-15T00:35:47;100076.20;;;5.90
70831;BMP180;58451;51.550;7.208;2023-04-15T00:37:19;100073.20;;;5.90
70831;BMP180;58451;51.550;7.208;2023-04-15T00:38:51;100073.20;;;5.80
70831;BMP180;58451;51.550;7.208;2023-04-15T00:40:24;100074.60;;;5.80
70831;BMP180;58451;51.550;7.208;2023-04-15T00:41:57;100072.00;;;5.80
70831;BMP180;58451;51.550;7.208;2023-04-15T00:43:29;100079.40;;;5.80
70831;BMP180;58451;51.550;7.208;2023-04-15T00:45:01;100072.60;;;5.70
70831;BMP180;58451;51.550;7.208;2023-04-15T00:46:35;100071.60;;;5.70
70831;BMP180;58451;51.550;7.208;2023-04-15T00:48:08;100068.40;;;5.70
70831;BMP180;58451;51.550;7.208;2023-04-15T00:49:41;100070.20;;;5.62
70831;BMP180;58451;51.550;7.208;2023-04-15T00:51:14;100070.20;;;5.60
70831;BMP180;58451;51.550;7.208;2023-04-15T00:53:07;100071.00;;;5.60
70831;BMP180;58451;51.550;7.208;2023-04-15T00:54:39;100073.00;;;5.58
70831;BMP180;58451;51.550;7.208;2023-04-15T00:56:11;100071.00;;;5.52
70831;BMP180;58451;51.550;7.208;2023-04-15T00:57:43;100068.20;;;5.50
70831;BMP180;58451;51.550;7.208;2023-04-15T00:59:17;100067.00;;;5.50
70831;BMP180;58451;51.550;7.208;2023-04-15T01:00:49;100072.20;;;5.50
70831;BMP180;58451;51.550;7.208;2023-04-15T01:02:25;100072.60;;;5.48
70831;BMP180;58451;51.550;7.208;2023-04-15T01:03:57;100071.20;;;5.40
70831;BMP180;58451;51.550;7.208;2023-04-15T01:05:31;100067.00;;;5.40
70831;BMP180;58451;51.550;7.208;2023-04-15T01:07:02;100069.20;;;5.40
70831;BMP180;58451;51.550;7.208;2023-04-15T01:08:34;100072.40;;;5.38
70831;BMP180;58451;51.550;7.208;2023-04-15T01:10:07;100070.20;;;5.30
70831;BMP180;58451;51.550;7.208;2023-04-15T01:11:39;100074.60;;;5.30
70831;BMP180;58451;51.550;7.208;2023-04-15T01:13:12;100075.20;;;5.30
70831;BMP180;58451;51.550;7.208;2023-04-15T01:14:43;100071.20;;;5.30
70831;BMP180;58451;51.550;7.208;2023-04-15T01:16:15;100075.40;;;5.20
70831;BMP180;58451;51.550;7.208;2023-04-15T01:17:48;100072.40;;;5.20
70831;BMP180;58451;51.550;7.208;2023-04-15T01:19:20;100072.20;;;5.20
70831;BMP180;58451;51.550;7.208;2023-04-15T01:20:52;100068.60;;;5.20
70831;BMP180;58451;51.550;7.208;2023-04-15T01:22:27;100070.20;;;5.10
70831;BMP180;58451;51.550;7.208;2023-04-15T01:24:00;100072.60;;;5.10
70831;BMP180;58451;51.550;7.208;2023-04-15T01:25:33;100072.00;;;5.10
70831;BMP180;58451;51.550;7.208;2023-04-15T01:27:05;100068.00;;;5.08
70831;BMP180;58451;51.550;7.208;2023-04-15T01:28:37;100074.60;;;5.00
70831;BMP180;58451;51.550;7.208;2023-04-15T01:30:10;100070.20;;;5.00
70831;BMP180;58451;51.550;7.208;2023-04-15T01:31:50;100075.20;;;5.00
70831;BMP180;58451;51.550;7.208;2023-04-15T01:33:22;100068.20;;;4.94
70831;BMP180;58451;51.550;7.208;2023-04-15T01:34:54;100066.20;;;4.90
70831;BMP180;58451;51.550;7.208;2023-04-15T01:36:27;100067.20;;;4.90
70831;BMP180;58451;51.550;7.208;2023-04-15T01:38:08;100066.40;;;4.90
70831;BMP180;58451;51.550;7.208;2023-04-15T01:39:41;100063.20;;;4.80
70831;BMP180;58451;51.550;7.208;2023-04-15T01:41:13;100063.40;;;4.80
70831;BMP180;58451;51.550;7.208;2023-04-15T01:42:45;100063.40;;;4.80
70831;BMP180;58451;51.550;7.208;2023-04-15T01:44:19;100063.20;;;4.80
70831;BMP180;58451;51.550;7.208;2023-04-15T01:45:51;100058.00;;;4.70
70831;BMP180;58451;51.550;7.208;2023-04-15T01:47:23;100062.00;;;4.70
70831;BMP180;58451;51.550;7.208;2023-04-15T01:48:55;100065.20;;;4.70
70831;BMP180;58451;51.550;7.208;2023-04-15T01:50:28;100066.60;;;4.70
70831;BMP180;58451;51.550;7.208;2023-04-15T01:52:00;100067.20;;;4.70
70831;BMP180;58451;51.550;7.208;2023-04-15T01:53:32;100065.80;;;4.60
70831;BMP180;58451;51.550;7.208;2023-04-15T01:55:07;100068.20;;;4.60
70831;BMP180;58451;51.550;7.208;2023-04-15T01:56:40;100067.00;;;4.60
70831;BMP180;58451;51.550;7.208;2023-04-15T01:58:13;100071.20;;;4.60
70831;BMP180;58451;51.550;7.208;2023-04-15T01:59:45;100070.40;;;4.56
70831;BMP180;58451;51.550;7.208;2023-04-15T02:01:18;100068.20;;;4.50
70831;BMP180;58451;51.550;7.208;2023-04-15T02:02:51;100061.40;;;4.50
70831;BMP180;58451;51.550;7.208;2023-04-15T02:04:23;100064.40;;;4.50
70831;BMP180;58451;51.550;7.208;2023-04-15T02:05:55;100066.80;;;4.44
70831;BMP180;58451;51.550;7.208;2023-04-15T02:07:27;100072.00;;;4.40
70831;BMP180;58451;51.550;7.208;2023-04-15T02:09:02;100074.20;;;4.40
70831;BMP180;58451;51.550;7.208;2023-04-15T02:10:34;100074.60;;;4.40
70831;BMP180;58451;51.550;7.208;2023-04-15T02:12:06;100074.80;;;4.40
70831;BMP180;58451;51.550;7.208;2023-04-15T02:13:38;100078.00;;;4.40
70831;BMP180;58451;51.550;7.208;2023-04-15T02:15:10;100076.60;;;4.40
70831;BMP180;58451;51.550;7.208;2023-04-15T02:16:41;100078.80;;;4.40
70831;BMP180;58451;51.550;7.208;2023-04-15T02:18:15;100080.00;;;4.40
70831;BMP180;58451;51.550;7.208;2023-04-15T02:19:47;100076.80;;;4.40
70831;BMP180;58451;51.550;7.208;2023-04-15T02:21:20;100077.00;;;4.32
70831;BMP180;58451;51.550;7.208;2023-04-15T02:22:51;100081.00;;;4.30
70831;BMP180;58451;51.550;7.208;2023-04-15T02:24:23;100085.20;;;4.30
70831;BMP180;58451;51.550;7.208;2023-04-15T02:25:55;100088.80;;;4.30
70831;BMP180;58451;51.550;7.208;2023-04-15T02:27:26;100083.20;;;4.30
70831;BMP180;58451;51.550;7.208;2023-04-15T02:28:59;100086.80;;;4.20
70831;BMP180;58451;51.550;7.208;2023-04-15T02:30:33;100094.40;;;4.20
70831;BMP180;58451;51.550;7.208;2023-04-15T02:32:06;100093.40;;;4.20
70831;BMP180;58451;51.550;7.208;2023-04-15T02:33:39;100088.60;;;4.20
70831;BMP180;58451;51.550;7.208;2023-04-15T02:35:10;100083.80;;;4.20
70831;BMP180;58451;51.550;7.208;2023-04-15T02:36:43;100090.20;;;4.20
70831;BMP180;58451;51.550;7.208;2023-04-15T02:38:15;100088.80;;;4.20
70831;BMP180;58451;51.550;7.208;2023-04-15T02:39:48;100091.20;;;4.14
70831;BMP180;58451;51.550;7.208;2023-04-15T02:41:20;100090.00;;;4.10
70831;BMP180;58451;51.550;7.208;2023-04-15T02:42:56;100096.40;;;4.10
70831;BMP180;58451;51.550;7.208;2023-04-15T02:44:28;100092.40;;;4.10
70831;BMP180;58451;51.550;7.208;2023-04-15T02:46:02;100093.80;;;4.08
70831;BMP180;58451;51.550;7.208;2023-04-15T02:47:34;100092.60;;;4.00
70831;BMP180;58451;51.550;7.208;2023-04-15T02:49:08;100093.80;;;4.00
70831;BMP180;58451;51.550;7.208;2023-04-15T02:50:41;100101.00;;;4.00
70831;BMP180;58451;51.550;7.208;2023-04-15T02:52:13;100102.00;;;4.00
70831;BMP180;58451;51.550;7.208;2023-04-15T02:53:49;100099.20;;;4.00
70831;BMP180;58451;51.550;7.208;2023-04-15T02:55:21;100101.40;;;4.00
70831;BMP180;58451;51.550;7.208;2023-04-15T02:56:53;100098.20;;;3.98
70831;BMP180;58451;51.550;7.208;2023-04-15T02:58:26;100099.80;;;3.94
70831;BMP180;58451;51.550;7.208;2023-04-15T02:59:58;100107.00;;;3.90
70831;BMP180;58451;51.550;7.208;2023-04-15T03:01:30;100105.80;;;3.90
70831;BMP180;58451;51.550;7.208;2023-04-15T03:03:04;100108.20;;;3.90
70831;BMP180;58451;51.550;7.208;2023-04-15T03:04:36;100110.80;;;3.90
70831;BMP180;58451;51.550;7.208;2023-04-15T03:06:08;100111.80;;;3.80
70831;BMP180;58451;51.550;7.208;2023-04-15T03:07:40;100114.60;;;3.80
70831;BMP180;58451;51.550;7.208;2023-04-15T03:09:12;100114.20;;;3.80
70831;BMP180;58451;51.550;7.208;2023-04-15T03:10:43;100116.00;;;3.80
70831;BMP180;58451;51.550;7.208;2023-04-15T03:12:15;100118.80;;;3.76
70831;BMP180;58451;51.550;7.208;2023-04-15T03:13:47;100115.60;;;3.70
70831;BMP180;58451;51.550;7.208;2023-04-15T03:15:38;100119.20;;;3.70
70831;BMP180;58451;51.550;7.208;2023-04-15T03:17:10;100118.80;;;3.70
70831;BMP180;58451;51.550;7.208;2023-04-15T03:18:42;100118.40;;;3.70
70831;BMP180;58451;51.550;7.208;2023-04-15T03:20:14;100119.40;;;3.70
70831;BMP180;58451;51.550;7.208;2023-04-15T03:21:46;100117.60;;;3.70
70831;BMP180;58451;51.550;7.208;2023-04-15T03:23:18;100119.60;;;3.70
70831;BMP180;58451;51.550;7.208;2023-04-15T03:24:50;100124.20;;;3.70
70831;BMP180;58451;51.550;7.208;2023-04-15T03:26:30;100130.40;;;3.70
70831;BMP180;58451;51.550;7.208;2023-04-15T03:28:05;100130.40;;;3.70
70831;BMP180;58451;51.550;7.208;2023-04-15T03:29:36;100127.60;;;3.70
70831;BMP180;58451;51.550;7.208;2023-04-15T03:31:08;100132.80;;;3.70
70831;BMP180;58451;51.550;7.208;2023-04-15T03:32:40;100133.40;;;3.70
70831;BMP180;58451;51.550;7.208;2023-04-15T03:34:12;100129.40;;;3.70
70831;BMP180;58451;51.550;7.208;2023-04-15T03:35:44;100131.40;;;3.70
70831;BMP180;58451;51.550;7.208;2023-04-15T03:37:16;100137.60;;;3.70
70831;BMP180;58451;51.550;7.208;2023-04-15T03:38:48;100137.00;;;3.70
70831;BMP180;58451;51.550;7.208;2023-04-15T03:40:20;100139.20;;;3.70
70831;BMP180;58451;51.550;7.208;2023-04-15T03:41:52;100135.40;;;3.70
70831;BMP180;58451;51.550;7.208;2023-04-15T03:43:24;100137.00;;;3.70
70831;BMP180;58451;51.550;7.208;2023-04-15T03:44:56;100139.80;;;3.64
70831;BMP180;58451;51.550;7.208;2023-04-15T03:46:28;100136.60;;;3.64
70831;BMP180;58451;51.550;7.208;2023-04-15T03:48:00;100137.80;;;3.60
70831;BMP180;58451;51.550;7.208;2023-04-15T03:49:46;100139.80;;;3.60
70831;BMP180;58451;51.550;7.208;2023-04-15T03:51:18;100139.80;;;3.60
70831;BMP180;58451;51.550;7.208;2023-04-15T03:52:50;100140.40;;;3.60
70831;BMP180;58451;51.550;7.208;2023-04-15T03:54:22;100140.40;;;3.60
70831;BMP180;58451;51.550;7.208;2023-04-15T03:55:54;100144.80;;;3.60
70831;BMP180;58451;51.550;7.208;2023-04-15T03:57:25;100140.20;;;3.60
70831;BMP180;58451;51.550;7.208;2023-04-15T03:58:57;100132.60;;;3.60
70831;BMP180;58451;51.550;7.208;2023-04-15T04:00:30;100140.00;;;3.60
70831;BMP180;58451;51.550;7.208;2023-04-15T04:02:01;100138.00;;;3.60
70831;BMP180;58451;51.550;7.208;2023-04-15T04:03:33;100139.40;;;3.60
70831;BMP180;58451;51.550;7.208;2023-04-15T04:05:06;100139.40;;;3.60
70831;BMP180;58451;51.550;7.208;2023-04-15T04:06:38;100141.40;;;3.60
70831;BMP180;58451;51.550;7.208;2023-04-15T04:08:10;100141.40;;;3.60
70831;BMP180;58451;51.550;7.208;2023-04-15T04:09:44;100143.00;;;3.54
70831;BMP180;58451;51.550;7.208;2023-04-15T04:11:18;100144.60;;;3.50
70831;BMP180;58451;51.550;7.208;2023-04-15T04:12:49;100149.40;;;3.50
70831;BMP180;58451;51.550;7.208;2023-04-15T04:14:21;100145.60;;;3.50
70831;BMP180;58451;51.550;7.208;2023-04-15T04:15:59;100147.20;;;3.50
70831;BMP180;58451;51.550;7.208;2023-04-15T04:17:31;100149.00;;;3.50
70831;BMP180;58451;51.550;7.208;2023-04-15T04:19:03;100151.80;;;3.50
70831;BMP180;58451;51.550;7.208;2023-04-15T04:20:35;100151.80;;;3.50
70831;BMP180;58451;51.550;7.208;2023-04-15T04:22:07;100153.00;;;3.50
70831;BMP180;58451;51.550;7.208;2023-04-15T04:23:38;100150.00;;;3.50
70831;BMP180;58451;51.550;7.208;2023-04-15T04:25:10;100151.20;;;3.50
70831;BMP180;58451;51.550;7.208;2023-04-15T04:26:42;100153.60;;;3.50
70831;BMP180;58451;51.550;7.208;2023-04-15T04:28:14;100156.40;;;3.50
70831;BMP180;58451;51.550;7.208;2023-04-15T04:29:46;100152.20;;;3.50
70831;BMP180;58451;51.550;7.208;2023-04-15T04:31:18;100157.60;;;3.50
70831;BMP180;58451;51.550;7.208;2023-04-15T04:32:50;100151.40;;;3.50
70831;BMP180;58451;51.550;7.208;2023-04-15T04:34:22;100154.60;;;3.50
70831;BMP180;58451;51.550;7.208;2023-04-15T04:35:54;100158.80;;;3.46
70831;BMP180;58451;51.550;7.208;2023-04-15T04:37:26;100154.00;;;3.40
70831;BMP180;58451;51.550;7.208;2023-04-15T04:38:57;100159.80;;;3.40
70831;BMP180;58451;51.550;7.208;2023-04-15T04:40:29;100161.40;;;3.40
70831;BMP180;58451;51.550;7.208;2023-04-15T04:42:01;100158.80;;;3.40
70831;BMP180;58451;51.550;7.208;2023-04-15T04:43:33;100163.60;;;3.40
70831;BMP180;58451;51.550;7.208;2023-04-15T04:45:06;100161.80;;;3.40
70831;BMP180;58451;51.550;7.208;2023-04-15T04:46:38;100160.60;;;3.40
70831;BMP180;58451;51.550;7.208;2023-04-15T04:48:09;100160.60;;;3.40
70831;BMP180;58451;51.550;7.208;2023-04-15T04:49:42;100163.80;;;3.34
70831;BMP180;58451;51.550;7.208;2023-04-15T04:51:13;100165.40;;;3.30
70831;BMP180;58451;51.550;7.208;2023-04-15T04:52:45;100171.00;;;3.30
70831;BMP180;58451;51.550;7.208;2023-04-15T04:54:17;100174.80;;;3.30
70831;BMP180;58451;51.550;7.208;2023-04-15T04:55:49;100173.20;;;3.30
70831;BMP180;58451;51.550;7.208;2023-04-15T04:57:20;100177.00;;;3.30
70831;BMP180;58451;51.550;7.208;2023-04-15T04:58:52;100175.00;;;3.30
70831;BMP180;58451;51.550;7.208;2023-04-15T05:00:24;100179.20;;;3.30
70831;BMP180;58451;51.550;7.208;2023-04-15T05:01:55;100184.00;;;3.30
70831;BMP180;58451;51.550;7.208;2023-04-15T05:03:27;100182.20;;;3.30
70831;BMP180;58451;51.550;7.208;2023-04-15T05:04:59;100189.40;;;3.30
70831;BMP180;58451;51.550;7.208;2023-04-15T05:06:32;100191.80;;;3.30
70831;BMP180;58451;51.550;7.208;2023-04-15T05:08:04;100188.80;;;3.30
70831;BMP180;58451;51.550;7.208;2023-04-15T05:09:36;100193.00;;;3.30
70831;BMP180;58451;51.550;7.208;2023-04-15T05:11:08;100192.20;;;3.30
70831;BMP180;58451;51.550;7.208;2023-04-15T05:12:40;100193.20;;;3.30
70831;BMP180;58451;51.550;7.208;2023-04-15T05:14:11;100194.40;;;3.30
70831;BMP180;58451;51.550;7.208;2023-04-15T05:15:43;100196.40;;;3.30
70831;BMP180;58451;51.550;7.208;2023-04-15T05:17:15;100194.60;;;3.32
70831;BMP180;58451;51.550;7.208;2023-04-15T05:18:47;100204.20;;;3.40
70831;BMP180;58451;51.550;7.208;2023-04-15T05:20:19;100200.20;;;3.40
70831;BMP180;58451;51.550;7.208;2023-04-15T05:21:51;100204.40;;;3.40
70831;BMP180;58451;51.550;7.208;2023-04-15T05:23:22;100207.00;;;3.40
70831;BMP180;58451;51.550;7.208;2023-04-15T05:24:54;100208.40;;;3.50
70831;BMP180;58451;51.550;7.208;2023-04-15T05:26:26;100214.20;;;3.50
70831;BMP180;58451;51.550;7.208;2023-04-15T05:27:58;100220.00;;;3.50
70831;BMP180;58451;51.550;7.208;2023-04-15T05:29:31;100217.80;;;3.52
70831;BMP180;58451;51.550;7.208;2023-04-15T05:31:02;100218.80;;;3.60
70831;BMP180;58451;51.550;7.208;2023-04-15T05:32:35;100222.40;;;3.60
70831;BMP180;58451;51.550;7.208;2023-04-15T05:34:07;100222.60;;;3.70
70831;BMP180;58451;51.550;7.208;2023-04-15T05:35:39;100216.80;;;3.70
70831;BMP180;58451;51.550;7.208;2023-04-15T05:37:11;100220.00;;;3.78
70831;BMP180;58451;51.550;7.208;2023-04-15T05:38:43;100221.80;;;3.80
70831;BMP180;58451;51.550;7.208;2023-04-15T05:40:15;100225.40;;;3.90
70831;BMP180;58451;51.550;7.208;2023-04-15T05:41:47;100230.40;;;3.90
70831;BMP180;58451;51.550;7.208;2023-04-15T05:43:18;100228.00;;;4.00
70831;BMP180;58451;51.550;7.208;2023-04-15T05:44:50;100233.40;;;4.00
70831;BMP180;58451;51.550;7.208;2023-04-15T05:46:22;100234.00;;;4.08
70831;BMP180;58451;51.550;7.208;2023-04-15T05:47:54;100239.80;;;4.10
70831;BMP180;58451;51.550;7.208;2023-04-15T05:49:26;100237.80;;;4.20
70831;BMP180;58451;51.550;7.208;2023-04-15T05:50:58;100240.40;;;4.20
70831;BMP180;58451;51.550;7.208;2023-04-15T05:52:30;100237.20;;;4.30
70831;BMP180;58451;51.550;7.208;2023-04-15T05:54:02;100242.60;;;4.30
70831;BMP180;58451;51.550;7.208;2023-04-15T05:55:34;100245.00;;;4.40
70831;BMP180;58451;51.550;7.208;2023-04-15T05:57:06;100244.00;;;4.42
70831;BMP180;58451;51.550;7.208;2023-04-15T05:58:38;100241.80;;;4.50
70831;BMP180;58451;51.550;7.208;2023-04-15T06:00:10;100245.60;;;4.58
70831;BMP180;58451;51.550;7.208;2023-04-15T06:01:42;100251.60;;;4.60
70831;BMP180;58451;51.550;7.208;2023-04-15T06:03:14;100255.40;;;4.64
70831;BMP180;58451;51.550;7.208;2023-04-15T06:04:46;100253.80;;;4.70
70831;BMP180;58451;51.550;7.208;2023-04-15T06:06:19;100254.00;;;4.76
70831;BMP180;58451;51.550;7.208;2023-04-15T06:07:51;100254.40;;;4.80
70831;BMP180;58451;51.550;7.208;2023-04-15T06:09:23;100260.40;;;4.86
70831;BMP180;58451;51.550;7.208;2023-04-15T06:10:55;100264.20;;;4.90
70831;BMP180;58451;51.550;7.208;2023-04-15T06:12:26;100266.60;;;5.00
70831;BMP180;58451;51.550;7.208;2023-04-15T06:13:59;100266.80;;;5.00
70831;BMP180;58451;51.550;7.208;2023-04-15T06:15:31;100268.00;;;5.10
70831;BMP180;58451;51.550;7.208;2023-04-15T06:17:02;100272.60;;;5.10
70831;BMP180;58451;51.550;7.208;2023-04-15T06:18:34;100268.60;;;5.20
70831;BMP180;58451;51.550;7.208;2023-04-15T06:20:06;100268.40;;;5.30
70831;BMP180;58451;51.550;7.208;2023-04-15T06:21:39;100271.60;;;5.40
70831;BMP180;58451;51.550;7.208;2023-04-15T06:23:11;100266.20;;;5.50
70831;BMP180;58451;51.550;7.208;2023-04-15T06:24:42;100266.80;;;5.56
70831;BMP180;58451;51.550;7.208;2023-04-15T06:26:14;100268.00;;;5.64
70831;BMP180;58451;51.550;7.208;2023-04-15T06:27:46;100273.20;;;5.72
70831;BMP180;58451;51.550;7.208;2023-04-15T06:29:18;100276.40;;;5.80
70831;BMP180;58451;51.550;7.208;2023-04-15T06:30:52;100281.60;;;5.90
70831;BMP180;58451;51.550;7.208;2023-04-15T06:32:24;100281.40;;;6.00
70831;BMP180;58451;51.550;7.208;2023-04-15T06:33:56;100280.60;;;6.10
70831;BMP180;58451;51.550;7.208;2023-04-15T06:35:28;100279.80;;;6.20
70831;BMP180;58451;51.550;7.208;2023-04-15T06:37:00;100289.60;;;6.28
70831;BMP180;58451;51.550;7.208;2023-04-15T06:38:32;100286.00;;;6.30
70831;BMP180;58451;51.550;7.208;2023-04-15T06:40:04;100285.00;;;6.30
70831;BMP180;58451;51.550;7.208;2023-04-15T06:41:36;100286.20;;;6.40
70831;BMP180;58451;51.550;7.208;2023-04-15T06:43:08;100283.60;;;6.44
70831;BMP180;58451;51.550;7.208;2023-04-15T06:44:41;100287.00;;;6.50
70831;BMP180;58451;51.550;7.208;2023-04-15T06:46:13;100288.20;;;6.60
70831;BMP180;58451;51.550;7.208;2023-04-15T06:47:45;100288.40;;;6.60
70831;BMP180;58451;51.550;7.208;2023-04-15T06:49:17;100291.60;;;6.68
70831;BMP180;58451;51.550;7.208;2023-04-15T06:50:49;100292.20;;;6.70
70831;BMP180;58451;51.550;7.208;2023-04-15T06:52:21;100292.00;;;6.76
70831;BMP180;58451;51.550;7.208;2023-04-15T06:53:53;100295.20;;;6.80
70831;BMP180;58451;51.550;7.208;2023-04-15T06:55:25;100290.80;;;6.84
70831;BMP180;58451;51.550;7.208;2023-04-15T06:56:57;100295.40;;;6.90
70831;BMP180;58451;51.550;7.208;2023-04-15T06:58:28;100294.80;;;6.98
70831;BMP180;58451;51.550;7.208;2023-04-15T07:00:01;100294.20;;;7.00
70831;BMP180;58451;51.550;7.208;2023-04-15T07:01:33;100302.80;;;7.10
70831;BMP180;58451;51.550;7.208;2023-04-15T07:03:05;100297.80;;;7.18
70831;BMP180;58451;51.550;7.208;2023-04-15T07:04:36;100303.20;;;7.20
70831;BMP180;58451;51.550;7.208;2023-04-15T07:06:08;100306.80;;;7.20
70831;BMP180;58451;51.550;7.208;2023-04-15T07:07:40;100305.80;;;7.30
70831;BMP180;58451;51.550;7.208;2023-04-15T07:09:12;100300.00;;;7.30
70831;BMP180;58451;51.550;7.208;2023-04-15T07:10:45;100308.40;;;7.40
70831;BMP180;58451;51.550;7.208;2023-04-15T07:12:18;100307.40;;;7.50
70831;BMP180;58451;51.550;7.208;2023-04-15T07:13:50;100306.60;;;7.54
70831;BMP180;58451;51.550;7.208;2023-04-15T07:15:21;100308.00;;;7.60
70831;BMP180;58451;51.550;7.208;2023-04-15T07:16:54;100310.00;;;7.70
70831;BMP180;58451;51.550;7.208;2023-04-15T07:18:26;100317.60;;;7.70
70831;BMP180;58451;51.550;7.208;2023-04-15T07:19:57;100310.20;;;7.80
70831;BMP180;58451;51.550;7.208;2023-04-15T07:21:30;100314.40;;;7.88
70831;BMP180;58451;51.550;7.208;2023-04-15T07:23:01;100313.60;;;7.90
70831;BMP180;58451;51.550;7.208;2023-04-15T07:24:34;100316.60;;;8.00
70831;BMP180;58451;51.550;7.208;2023-04-15T07:26:07;100316.40;;;8.10
70831;BMP180;58451;51.550;7.208;2023-04-15T07:27:39;100316.40;;;8.10
70831;BMP180;58451;51.550;7.208;2023-04-15T07:29:11;100312.20;;;8.20
70831;BMP180;58451;51.550;7.208;2023-04-15T07:30:43;100316.60;;;8.26
70831;BMP180;58451;51.550;7.208;2023-04-15T07:32:15;100318.40;;;8.30
70831;BMP180;58451;51.550;7.208;2023-04-15T07:33:46;100319.20;;;8.40
70831;BMP180;58451;51.550;7.208;2023-04-15T07:35:18;100319.20;;;8.40
70831;BMP180;58451;51.550;7.208;2023-04-15T07:36:51;100320.80;;;8.50
70831;BMP180;58451;51.550;7.208;2023-04-15T07:38:23;100322.80;;;8.58
70831;BMP180;58451;51.550;7.208;2023-04-15T07:39:55;100325.60;;;8.70
70831;BMP180;58451;51.550;7.208;2023-04-15T07:41:29;100325.80;;;8.80
70831;BMP180;58451;51.550;7.208;2023-04-15T07:43:01;100329.20;;;8.84
70831;BMP180;58451;51.550;7.208;2023-04-15T07:44:33;100327.80;;;8.90
70831;BMP180;58451;51.550;7.208;2023-04-15T07:46:06;100332.80;;;9.04
70831;BMP180;58451;51.550;7.208;2023-04-15T07:47:38;100330.40;;;9.20
70831;BMP180;58451;51.550;7.208;2023-04-15T07:49:11;100331.00;;;9.20
70831;BMP180;58451;51.550;7.208;2023-04-15T07:50:44;100331.80;;;9.30
70831;BMP180;58451;51.550;7.208;2023-04-15T07:52:16;100335.00;;;9.40
70831;BMP180;58451;51.550;7.208;2023-04-15T07:53:48;100338.20;;;9.50
70831;BMP180;58451;51.550;7.208;2023-04-15T07:55:20;100337.20;;;9.62
70831;BMP180;58451;51.550;7.208;2023-04-15T07:56:53;100333.20;;;9.76
70831;BMP180;58451;51.550;7.208;2023-04-15T07:58:26;100332.40;;;9.88
70831;BMP180;58451;51.550;7.208;2023-04-15T07:59:59;100333.80;;;9.90
70831;BMP180;58451;51.550;7.208;2023-04-15T08:01:31;100334.60;;;10.00
70831;BMP180;58451;51.550;7.208;2023-04-15T08:03:03;100337.40;;;10.00
70831;BMP180;58451;51.550;7.208;2023-04-15T08:04:35;100335.20;;;10.00
70831;BMP180;58451;51.550;7.208;2023-04-15T08:06:08;100333.00;;;10.10
70831;BMP180;58451;51.550;7.208;2023-04-15T08:07:40;100335.40;;;10.10
70831;BMP180;58451;51.550;7.208;2023-04-15T08:09:12;100336.20;;;10.10
70831;BMP180;58451;51.550;7.208;2023-04-15T08:10:44;100339.60;;;10.10
70831;BMP180;58451;51.550;7.208;2023-04-15T08:12:16;100342.20;;;10.20
70831;BMP180;58451;51.550;7.208;2023-04-15T08:13:47;100346.00;;;10.22
70831;BMP180;58451;51.550;7.208;2023-04-15T08:15:19;100343.60;;;10.30
70831;BMP180;58451;51.550;7.208;2023-04-15T08:16:52;100348.00;;;10.30
70831;BMP180;58451;51.550;7.208;2023-04-15T08:18:23;100345.60;;;10.38
70831;BMP180;58451;51.550;7.208;2023-04-15T08:19:55;100345.00;;;10.46
70831;BMP180;58451;51.550;7.208;2023-04-15T08:21:27;100349.20;;;10.62
70831;BMP180;58451;51.550;7.208;2023-04-15T08:23:01;100341.20;;;10.80
70831;BMP180;58451;51.550;7.208;2023-04-15T08:24:33;100345.80;;;10.94
70831;BMP180;58451;51.550;7.208;2023-04-15T08:26:06;100348.00;;;11.00
70831;BMP180;58451;51.550;7.208;2023-04-15T08:27:39;100341.40;;;11.00
70831;BMP180;58451;51.550;7.208;2023-04-15T08:29:11;100343.40;;;11.10
70831;BMP180;58451;51.550;7.208;2023-04-15T08:30:42;100349.80;;;11.10
70831;BMP180;58451;51.550;7.208;2023-04-15T08:32:14;100347.60;;;11.10
70831;BMP180;58451;51.550;7.208;2023-04-15T08:33:46;100347.40;;;11.06
70831;BMP180;58451;51.550;7.208;2023-04-15T08:35:18;100353.40;;;11.00
70831;BMP180;58451;51.550;7.208;2023-04-15T08:36:50;100351.80;;;11.00
70831;BMP180;58451;51.550;7.208;2023-04-15T08:38:22;100356.20;;;10.90
70831;BMP180;58451;51.550;7.208;2023-04-15T08:39:54;100353.40;;;10.88
70831;BMP180;58451;51.550;7.208;2023-04-15T08:41:39;100360.20;;;10.80
70831;BMP180;58451;51.550;7.208;2023-04-15T08:43:25;100355.60;;;10.70
70831;BMP180;58451;51.550;7.208;2023-04-15T08:44:59;100358.40;;;10.62
70831;BMP180;58451;51.550;7.208;2023-04-15T08:46:34;100362.20;;;10.70
70831;BMP180;58451;51.550;7.208;2023-04-15T08:48:08;100365.40;;;10.70
70831;BMP180;58451;51.550;7.208;2023-04-15T08:49:42;100361.60;;;10.80
70831;BMP180;58451;51.550;7.208;2023-04-15T08:51:16;100361.60;;;10.80